Terminal Aerodrome Forecast
Issued by NWS

Home | Current Version | Previous Version | Text Only | Print | Product List | Glossary On
Versions: 1 2 3 4 5 6 7 8 9 10 11 12 13 14 15 16 17 18 19 20 21 22 23 24 25 26 27 28 29 30 31 32 33 34 35 36 37 38 39 40 41 42 43 44 45 46 47
000
FTAK31 PAFA 011342 AAB
TAFAOT
TAF AMD
PAOT 011342Z 0114/0212 23010KT P6SM VCSH BKN014 OVC040
      TEMPO 0114/0116 5SM -RA OVC014
     FM011800 25015KT P6SM -SHRA BKN025
     FM020000 30016KT P6SM VCSH OVC025=

USA.gov is the U.S. government's official web portal to all federal, state and local government web resources and services.